»·PEaware :: N1562Z KAVQ-KBXK

N1562Z :: KAVQ-KBXK

FLIGHT INFORMATION

Flight Status: Arrived
Operator: Privately registered:
United States
More flights under this callsign
Pilot: Ray C. (6148)
Aircraft: JMB VL-3
(VL3)
More flights by this aircraft type
Origin: KAVQ Marana Northwest Regl
United States
Destination: KBXK Buckeye Mun
United States
More flights between these airports :: More routes between these airports
Route: +VFR
File this flight plan on PilotEdge
Remarks: Arizona Alphabet Challenge - KAVQ-KBXK
Altitude:
(Current/Filed)
2,500ft
Speed:
(Current/Filed)
130kts
Departed: 07-Oct-20 12:48 PM
Arrived: 07-Oct-20 01:39 PM
Distance/Time
Traveled:
95nm/0:50
Distance/Time
To Go:
Arrived

Flight Plot

Page will automatically refresh every two minutes.

Flight plan parsing failed; only flown route is shown


Map Options




Map Legend


Flown Route
Filed Route
Departure Airport
Arrival Airport
Navaid (VOR, NDB)
Fix

Horizontal Profiles

Position Reports

Time Latitude Longitude Heading Altitude Ground
Speed
07-Oct-20 12:41 32.408169 -111.212628 140 2029ft 0kts
07-Oct-20 12:42 32.408169 -111.212628 140 2029ft 0kts
07-Oct-20 12:43 32.408169 -111.212628 140 2029ft 0kts
07-Oct-20 12:44 32.407558 -111.212585 142 2029ft 9kts
07-Oct-20 12:45 32.404755 -111.209960 226 2034ft 0kts
07-Oct-20 12:46 32.404636 -111.210091 221 2034ft 9kts
07-Oct-20 12:47 32.416592 -111.224033 316 2576ft 95kts
07-Oct-20 12:48 32.436294 -111.251647 303 2523ft 124kts
07-Oct-20 12:49 32.454738 -111.283786 314 2803ft 108kts
07-Oct-20 12:50 32.473805 -111.310724 310 3491ft 106kts
07-Oct-20 12:51 32.492509 -111.337047 311 4172ft 103kts
07-Oct-20 12:52 32.511727 -111.364461 311 4458ft 113kts
07-Oct-20 12:53 32.520391 -111.376830 310 4463ft 115kts
07-Oct-20 12:54 32.522318 -111.379581 311 4660ft 92kts
07-Oct-20 12:55 32.539603 -111.404204 310 4768ft 103kts
07-Oct-20 12:56 32.558022 -111.430540 311 4719ft 106kts
07-Oct-20 12:57 32.578191 -111.459459 310 4513ft 116kts
07-Oct-20 12:58 32.598902 -111.488950 310 4508ft 116kts
07-Oct-20 12:59 32.619651 -111.518645 310 4509ft 120kts
07-Oct-20 13:00 32.641224 -111.549526 310 4507ft 122kts
07-Oct-20 13:01 32.662871 -111.580525 311 4510ft 122kts
07-Oct-20 13:02 32.684723 -111.611895 310 4506ft 124kts
07-Oct-20 13:03 32.706984 -111.643843 309 4508ft 126kts
07-Oct-20 13:04 32.729405 -111.676094 308 4509ft 125kts
07-Oct-20 13:05 32.751503 -111.707844 308 4510ft 123kts
07-Oct-20 13:06 32.773023 -111.738847 309 4510ft 120kts
07-Oct-20 13:07 32.794573 -111.769868 310 4481ft 121kts
07-Oct-20 13:08 32.816372 -111.801334 309 4481ft 123kts
07-Oct-20 13:09 32.838235 -111.832905 309 4480ft 123kts
07-Oct-20 13:10 32.860115 -111.864458 309 4481ft 123kts
07-Oct-20 13:11 32.881998 -111.896103 309 4480ft 123kts
07-Oct-20 13:12 32.903725 -111.927547 309 4508ft 123kts
07-Oct-20 13:13 32.925618 -111.959223 309 4505ft 123kts
07-Oct-20 13:14 32.947394 -111.990759 309 4536ft 123kts
07-Oct-20 13:15 32.969184 -112.022421 309 4536ft 123kts
07-Oct-20 13:16 32.991026 -112.054110 309 4536ft 123kts
07-Oct-20 13:17 33.012865 -112.085860 309 4537ft 123kts
07-Oct-20 13:18 33.034663 -112.117532 309 4538ft 123kts
07-Oct-20 13:19 33.056489 -112.149306 309 4536ft 123kts
07-Oct-20 13:20 33.078314 -112.181121 309 4537ft 124kts
07-Oct-20 13:21 33.100206 -112.213036 309 4536ft 124kts
07-Oct-20 13:22 33.122061 -112.244899 309 4536ft 124kts
07-Oct-20 13:23 33.143878 -112.276782 309 4535ft 124kts
07-Oct-20 13:25 33.165702 -112.308667 309 4535ft 124kts
07-Oct-20 13:26 33.187511 -112.340595 309 4536ft 124kts
07-Oct-20 13:27 33.209361 -112.372563 309 4535ft 124kts
07-Oct-20 13:28 33.231169 -112.404550 310 4477ft 124kts
07-Oct-20 13:29 33.253303 -112.437017 309 4481ft 127kts
07-Oct-20 13:30 33.275785 -112.470053 307 4479ft 127kts
07-Oct-20 13:31 33.297768 -112.502332 307 4474ft 123kts
07-Oct-20 13:32 33.319176 -112.533788 308 4475ft 119kts
07-Oct-20 13:33 33.340250 -112.564868 310 4478ft 121kts
07-Oct-20 13:34 33.361646 -112.596416 310 4476ft 122kts
07-Oct-20 13:35 33.380447 -112.624197 309 3860ft 85kts
07-Oct-20 13:36 33.394986 -112.647506 309 2859ft 85kts
07-Oct-20 13:37 33.407898 -112.670480 281 1927ft 78kts
07-Oct-20 13:38 33.414677 -112.686622 5 1098ft 74kts
07-Oct-20 13:39 33.420855 -112.685207 98 1013ft 0kts
07-Oct-20 13:40 33.420855 -112.685207 98 1013ft 0kts
07-Oct-20 13:41 33.420855 -112.685207 98 1013ft 0kts
07-Oct-20 13:42 33.420857 -112.684462 94 1013ft 12kts
07-Oct-20 13:42 33.420015 -112.682885 256 1011ft 6kts

Navigation Log

Ident Type
Flight plan parsing failed, navigation log unavailable